sensor_id;sensor_type;location;lat;lon;timestamp;P1;durP1;ratioP1;P2;durP2;ratioP2
68108;SDS011;54893;49.864;19.084;2022-09-09T00:03:40;17.40;;;8.00;;
68108;SDS011;54893;49.864;19.084;2022-09-09T00:13:59;18.05;;;9.77;;
68108;SDS011;54893;49.864;19.084;2022-09-09T00:24:34;19.38;;;10.68;;
68108;SDS011;54893;49.864;19.084;2022-09-09T00:29:43;20.23;;;11.20;;
68108;SDS011;54893;49.864;19.084;2022-09-09T00:34:51;20.95;;;10.38;;
68108;SDS011;54893;49.864;19.084;2022-09-09T00:39:55;19.83;;;9.80;;
68108;SDS011;54893;49.864;19.084;2022-09-09T00:55:35;19.70;;;10.13;;
68108;SDS011;54893;49.864;19.084;2022-09-09T01:00:43;21.33;;;10.73;;
68108;SDS011;54893;49.864;19.084;2022-09-09T01:11:06;19.40;;;8.83;;
68108;SDS011;54893;49.864;19.084;2022-09-09T01:16:13;17.75;;;8.40;;
68108;SDS011;54893;49.864;19.084;2022-09-09T01:26:58;15.65;;;7.50;;
68108;SDS011;54893;49.864;19.084;2022-09-09T01:37:37;16.67;;;8.02;;
68108;SDS011;54893;49.864;19.084;2022-09-09T01:42:38;11.40;;;6.60;;
68108;SDS011;54893;49.864;19.084;2022-09-09T01:47:38;12.23;;;6.13;;
68108;SDS011;54893;49.864;19.084;2022-09-09T01:52:39;13.73;;;6.07;;
68108;SDS011;54893;49.864;19.084;2022-09-09T01:57:46;14.15;;;6.40;;
68108;SDS011;54893;49.864;19.084;2022-09-09T02:08:08;10.35;;;6.38;;
68108;SDS011;54893;49.864;19.084;2022-09-09T02:13:14;11.67;;;6.10;;
68108;SDS011;54893;49.864;19.084;2022-09-09T02:18:21;9.55;;;5.68;;
68108;SDS011;54893;49.864;19.084;2022-09-09T02:23:30;10.68;;;6.25;;
68108;SDS011;54893;49.864;19.084;2022-09-09T02:28:32;12.17;;;5.70;;
68108;SDS011;54893;49.864;19.084;2022-09-09T02:33:36;8.73;;;5.90;;
68108;SDS011;54893;49.864;19.084;2022-09-09T02:38:42;8.57;;;5.27;;
68108;SDS011;54893;49.864;19.084;2022-09-09T02:43:51;11.05;;;5.93;;
68108;SDS011;54893;49.864;19.084;2022-09-09T02:49:09;8.80;;;5.63;;
68108;SDS011;54893;49.864;19.084;2022-09-09T02:54:29;9.10;;;5.38;;
68108;SDS011;54893;49.864;19.084;2022-09-09T02:59:31;10.23;;;5.80;;
68108;SDS011;54893;49.864;19.084;2022-09-09T03:04:32;9.75;;;5.70;;
68108;SDS011;54893;49.864;19.084;2022-09-09T03:09:32;10.33;;;5.73;;
68108;SDS011;54893;49.864;19.084;2022-09-09T03:14:33;11.33;;;6.23;;
68108;SDS011;54893;49.864;19.084;2022-09-09T03:19:33;9.23;;;5.90;;
68108;SDS011;54893;49.864;19.084;2022-09-09T03:24:35;13.70;;;6.50;;
68108;SDS011;54893;49.864;19.084;2022-09-09T03:29:35;10.57;;;6.80;;
68108;SDS011;54893;49.864;19.084;2022-09-09T03:34:35;11.38;;;6.95;;
68108;SDS011;54893;49.864;19.084;2022-09-09T03:39:38;9.52;;;5.80;;
68108;SDS011;54893;49.864;19.084;2022-09-09T03:44:39;10.00;;;5.83;;
68108;SDS011;54893;49.864;19.084;2022-09-09T03:49:41;8.73;;;5.80;;
68108;SDS011;54893;49.864;19.084;2022-09-09T03:54:42;8.97;;;6.00;;
68108;SDS011;54893;49.864;19.084;2022-09-09T03:59:42;9.17;;;6.10;;
68108;SDS011;54893;49.864;19.084;2022-09-09T04:04:43;9.73;;;6.43;;
68108;SDS011;54893;49.864;19.084;2022-09-09T04:09:44;11.13;;;6.70;;
68108;SDS011;54893;49.864;19.084;2022-09-09T04:14:44;9.70;;;6.37;;
68108;SDS011;54893;49.864;19.084;2022-09-09T04:19:44;12.53;;;7.13;;
68108;SDS011;54893;49.864;19.084;2022-09-09T04:24:44;13.77;;;7.70;;
68108;SDS011;54893;49.864;19.084;2022-09-09T04:29:45;12.90;;;7.80;;
68108;SDS011;54893;49.864;19.084;2022-09-09T04:34:45;13.03;;;7.17;;
68108;SDS011;54893;49.864;19.084;2022-09-09T04:39:47;10.68;;;7.05;;
68108;SDS011;54893;49.864;19.084;2022-09-09T04:44:48;13.77;;;7.27;;
68108;SDS011;54893;49.864;19.084;2022-09-09T04:49:48;12.57;;;7.40;;
68108;SDS011;54893;49.864;19.084;2022-09-09T04:54:48;13.03;;;7.53;;
68108;SDS011;54893;49.864;19.084;2022-09-09T04:59:49;11.80;;;7.20;;
68108;SDS011;54893;49.864;19.084;2022-09-09T05:04:49;12.37;;;7.63;;
68108;SDS011;54893;49.864;19.084;2022-09-09T05:09:49;15.33;;;7.73;;
68108;SDS011;54893;49.864;19.084;2022-09-09T05:14:50;13.73;;;7.97;;
68108;SDS011;54893;49.864;19.084;2022-09-09T05:19:50;11.80;;;8.00;;
68108;SDS011;54893;49.864;19.084;2022-09-09T05:24:51;23.67;;;8.77;;
68108;SDS011;54893;49.864;19.084;2022-09-09T05:29:51;17.17;;;9.40;;
68108;SDS011;54893;49.864;19.084;2022-09-09T05:34:51;19.05;;;9.25;;
68108;SDS011;54893;49.864;19.084;2022-09-09T05:39:52;16.77;;;8.40;;
68108;SDS011;54893;49.864;19.084;2022-09-09T05:44:53;12.00;;;7.35;;
68108;SDS011;54893;49.864;19.084;2022-09-09T05:49:54;13.30;;;6.73;;
68108;SDS011;54893;49.864;19.084;2022-09-09T05:54:55;11.93;;;7.13;;
68108;SDS011;54893;49.864;19.084;2022-09-09T05:59:56;10.48;;;6.20;;
68108;SDS011;54893;49.864;19.084;2022-09-09T06:04:57;9.33;;;5.43;;
68108;SDS011;54893;49.864;19.084;2022-09-09T06:09:57;10.23;;;5.70;;
68108;SDS011;54893;49.864;19.084;2022-09-09T06:14:58;9.43;;;5.43;;
68108;SDS011;54893;49.864;19.084;2022-09-09T06:19:59;7.03;;;5.07;;
68108;SDS011;54893;49.864;19.084;2022-09-09T06:24:59;6.87;;;4.67;;
68108;SDS011;54893;49.864;19.084;2022-09-09T06:30:01;8.02;;;4.43;;
68108;SDS011;54893;49.864;19.084;2022-09-09T06:35:02;6.13;;;4.30;;
68108;SDS011;54893;49.864;19.084;2022-09-09T06:40:03;9.13;;;4.28;;
68108;SDS011;54893;49.864;19.084;2022-09-09T06:45:04;7.73;;;4.30;;
68108;SDS011;54893;49.864;19.084;2022-09-09T06:50:04;5.50;;;3.67;;
68108;SDS011;54893;49.864;19.084;2022-09-09T06:55:07;9.55;;;3.88;;
68108;SDS011;54893;49.864;19.084;2022-09-09T07:00:08;12.10;;;7.47;;
68108;SDS011;54893;49.864;19.084;2022-09-09T07:05:09;5.78;;;3.78;;
68108;SDS011;54893;49.864;19.084;2022-09-09T07:10:09;5.67;;;3.43;;
68108;SDS011;54893;49.864;19.084;2022-09-09T07:15:10;5.60;;;3.17;;
68108;SDS011;54893;49.864;19.084;2022-09-09T07:20:11;5.10;;;3.27;;
68108;SDS011;54893;49.864;19.084;2022-09-09T07:25:12;7.63;;;3.00;;
68108;SDS011;54893;49.864;19.084;2022-09-09T07:30:14;5.43;;;3.50;;
68108;SDS011;54893;49.864;19.084;2022-09-09T07:35:14;4.97;;;2.85;;
68108;SDS011;54893;49.864;19.084;2022-09-09T07:40:15;5.17;;;3.00;;
68108;SDS011;54893;49.864;19.084;2022-09-09T07:45:15;5.13;;;2.80;;
68108;SDS011;54893;49.864;19.084;2022-09-09T07:50:15;5.23;;;3.00;;
68108;SDS011;54893;49.864;19.084;2022-09-09T07:55:16;4.10;;;2.50;;
68108;SDS011;54893;49.864;19.084;2022-09-09T08:00:16;4.60;;;2.80;;
68108;SDS011;54893;49.864;19.084;2022-09-09T08:05:19;4.47;;;2.83;;
68108;SDS011;54893;49.864;19.084;2022-09-09T08:10:19;5.37;;;3.00;;
68108;SDS011;54893;49.864;19.084;2022-09-09T08:15:20;5.13;;;2.63;;
68108;SDS011;54893;49.864;19.084;2022-09-09T08:20:20;5.70;;;2.80;;
68108;SDS011;54893;49.864;19.084;2022-09-09T08:25:21;5.05;;;3.50;;
68108;SDS011;54893;49.864;19.084;2022-09-09T08:30:21;6.43;;;2.55;;
68108;SDS011;54893;49.864;19.084;2022-09-09T08:35:22;3.73;;;2.40;;
68108;SDS011;54893;49.864;19.084;2022-09-09T08:40:25;4.43;;;2.30;;
68108;SDS011;54893;49.864;19.084;2022-09-09T08:45:37;3.80;;;2.40;;
68108;SDS011;54893;49.864;19.084;2022-09-09T08:50:50;4.10;;;2.40;;
68108;SDS011;54893;49.864;19.084;2022-09-09T08:55:52;5.85;;;2.17;;
68108;SDS011;54893;49.864;19.084;2022-09-09T09:06:50;3.63;;;2.10;;
68108;SDS011;54893;49.864;19.084;2022-09-09T09:11:59;6.72;;;2.78;;
68108;SDS011;54893;49.864;19.084;2022-09-09T09:17:02;3.50;;;2.20;;
68108;SDS011;54893;49.864;19.084;2022-09-09T09:27:47;4.18;;;2.20;;
68108;SDS011;54893;49.864;19.084;2022-09-09T09:32:54;4.80;;;2.50;;
68108;SDS011;54893;49.864;19.084;2022-09-09T09:37:58;4.65;;;2.70;;
68108;SDS011;54893;49.864;19.084;2022-09-09T09:43:00;4.27;;;2.40;;
68108;SDS011;54893;49.864;19.084;2022-09-09T09:48:03;4.18;;;2.60;;
68108;SDS011;54893;49.864;19.084;2022-09-09T09:53:05;3.97;;;2.70;;
68108;SDS011;54893;49.864;19.084;2022-09-09T09:58:17;4.97;;;2.67;;
68108;SDS011;54893;49.864;19.084;2022-09-09T10:03:28;5.13;;;2.80;;
68108;SDS011;54893;49.864;19.084;2022-09-09T10:08:44;4.05;;;2.58;;
68108;SDS011;54893;49.864;19.084;2022-09-09T10:19:31;4.65;;;2.45;;
68108;SDS011;54893;49.864;19.084;2022-09-09T10:24:37;3.50;;;2.10;;
68108;SDS011;54893;49.864;19.084;2022-09-09T10:56:41;4.72;;;2.33;;
68108;SDS011;54893;49.864;19.084;2022-09-09T11:01:46;3.78;;;2.40;;
68108;SDS011;54893;49.864;19.084;2022-09-09T11:06:52;3.13;;;2.10;;
68108;SDS011;54893;49.864;19.084;2022-09-09T11:11:57;4.57;;;2.20;;
68108;SDS011;54893;49.864;19.084;2022-09-09T11:17:03;4.28;;;2.10;;
68108;SDS011;54893;49.864;19.084;2022-09-09T11:22:18;4.68;;;2.00;;
68108;SDS011;54893;49.864;19.084;2022-09-09T11:32:44;5.23;;;1.60;;
68108;SDS011;54893;49.864;19.084;2022-09-09T11:43:27;4.05;;;1.60;;
68108;SDS011;54893;49.864;19.084;2022-09-09T11:48:37;3.92;;;1.63;;
68108;SDS011;54893;49.864;19.084;2022-09-09T11:53:50;2.88;;;1.70;;
68108;SDS011;54893;49.864;19.084;2022-09-09T11:59:05;4.70;;;2.00;;
68108;SDS011;54893;49.864;19.084;2022-09-09T12:19:41;3.03;;;1.80;;
68108;SDS011;54893;49.864;19.084;2022-09-09T12:35:12;3.17;;;1.83;;
68108;SDS011;54893;49.864;19.084;2022-09-09T12:40:24;5.53;;;2.00;;
68108;SDS011;54893;49.864;19.084;2022-09-09T12:45:29;2.88;;;1.83;;
68108;SDS011;54893;49.864;19.084;2022-09-09T12:50:33;4.53;;;1.80;;
68108;SDS011;54893;49.864;19.084;2022-09-09T12:55:36;3.78;;;1.80;;
68108;SDS011;54893;49.864;19.084;2022-09-09T13:00:48;5.88;;;2.72;;
68108;SDS011;54893;49.864;19.084;2022-09-09T13:05:51;2.80;;;1.73;;
68108;SDS011;54893;49.864;19.084;2022-09-09T13:10:54;3.25;;;1.90;;
68108;SDS011;54893;49.864;19.084;2022-09-09T13:16:03;4.60;;;1.73;;
68108;SDS011;54893;49.864;19.084;2022-09-09T13:21:07;2.92;;;1.60;;
68108;SDS011;54893;49.864;19.084;2022-09-09T13:26:21;6.07;;;2.70;;
68108;SDS011;54893;49.864;19.084;2022-09-09T13:31:29;3.33;;;2.10;;
68108;SDS011;54893;49.864;19.084;2022-09-09T13:36:32;3.90;;;2.00;;
68108;SDS011;54893;49.864;19.084;2022-09-09T13:41:44;3.00;;;1.60;;
68108;SDS011;54893;49.864;19.084;2022-09-09T13:46:46;3.55;;;1.80;;
68108;SDS011;54893;49.864;19.084;2022-09-09T13:51:48;4.70;;;1.90;;
68108;SDS011;54893;49.864;19.084;2022-09-09T13:56:50;3.25;;;1.83;;
68108;SDS011;54893;49.864;19.084;2022-09-09T14:01:50;4.17;;;1.80;;
68108;SDS011;54893;49.864;19.084;2022-09-09T14:06:52;3.95;;;1.77;;
68108;SDS011;54893;49.864;19.084;2022-09-09T14:11:53;3.93;;;2.10;;
68108;SDS011;54893;49.864;19.084;2022-09-09T14:16:55;3.70;;;1.77;;
68108;SDS011;54893;49.864;19.084;2022-09-09T14:21:55;7.97;;;1.80;;
68108;SDS011;54893;49.864;19.084;2022-09-09T14:26:56;4.10;;;1.77;;
68108;SDS011;54893;49.864;19.084;2022-09-09T14:31:56;4.10;;;2.43;;
68108;SDS011;54893;49.864;19.084;2022-09-09T14:36:56;4.73;;;2.00;;
68108;SDS011;54893;49.864;19.084;2022-09-09T14:41:57;3.33;;;1.77;;
68108;SDS011;54893;49.864;19.084;2022-09-09T14:46:58;2.80;;;1.48;;
68108;SDS011;54893;49.864;19.084;2022-09-09T14:51:58;3.23;;;1.60;;
68108;SDS011;54893;49.864;19.084;2022-09-09T14:56:58;3.60;;;1.50;;
68108;SDS011;54893;49.864;19.084;2022-09-09T15:01:59;3.60;;;1.80;;
68108;SDS011;54893;49.864;19.084;2022-09-09T15:07:03;2.60;;;1.50;;
68108;SDS011;54893;49.864;19.084;2022-09-09T15:12:04;4.57;;;1.70;;
68108;SDS011;54893;49.864;19.084;2022-09-09T15:17:04;6.60;;;3.60;;
68108;SDS011;54893;49.864;19.084;2022-09-09T15:22:05;3.33;;;1.83;;
68108;SDS011;54893;49.864;19.084;2022-09-09T15:27:05;3.43;;;1.70;;
68108;SDS011;54893;49.864;19.084;2022-09-09T15:32:06;8.37;;;4.60;;
68108;SDS011;54893;49.864;19.084;2022-09-09T15:37:06;3.67;;;2.00;;
68108;SDS011;54893;49.864;19.084;2022-09-09T15:42:10;4.55;;;1.52;;
68108;SDS011;54893;49.864;19.084;2022-09-09T15:47:11;5.17;;;1.83;;
68108;SDS011;54893;49.864;19.084;2022-09-09T15:52:13;3.85;;;1.90;;
68108;SDS011;54893;49.864;19.084;2022-09-09T15:57:13;4.22;;;2.45;;
68108;SDS011;54893;49.864;19.084;2022-09-09T16:02:13;4.22;;;2.97;;
68108;SDS011;54893;49.864;19.084;2022-09-09T16:07:14;5.83;;;3.23;;
68108;SDS011;54893;49.864;19.084;2022-09-09T16:12:14;5.60;;;3.13;;
68108;SDS011;54893;49.864;19.084;2022-09-09T16:17:14;7.17;;;3.57;;
68108;SDS011;54893;49.864;19.084;2022-09-09T16:22:15;7.20;;;3.60;;
68108;SDS011;54893;49.864;19.084;2022-09-09T16:27:16;7.00;;;3.77;;
68108;SDS011;54893;49.864;19.084;2022-09-09T16:32:16;7.05;;;3.40;;
68108;SDS011;54893;49.864;19.084;2022-09-09T16:37:16;10.37;;;3.27;;
68108;SDS011;54893;49.864;19.084;2022-09-09T16:42:17;12.37;;;5.03;;
68108;SDS011;54893;49.864;19.084;2022-09-09T16:47:18;11.97;;;5.60;;
68108;SDS011;54893;49.864;19.084;2022-09-09T16:52:18;9.53;;;5.03;;
68108;SDS011;54893;49.864;19.084;2022-09-09T16:57:18;9.52;;;5.35;;
68108;SDS011;54893;49.864;19.084;2022-09-09T17:02:19;15.82;;;7.38;;
68108;SDS011;54893;49.864;19.084;2022-09-09T17:07:19;14.03;;;6.70;;
68108;SDS011;54893;49.864;19.084;2022-09-09T17:12:19;9.27;;;5.17;;
68108;SDS011;54893;49.864;19.084;2022-09-09T17:17:21;11.63;;;5.45;;
68108;SDS011;54893;49.864;19.084;2022-09-09T17:22:21;12.40;;;6.03;;
68108;SDS011;54893;49.864;19.084;2022-09-09T17:27:23;23.70;;;11.50;;
68108;SDS011;54893;49.864;19.084;2022-09-09T17:32:23;31.07;;;15.50;;
68108;SDS011;54893;49.864;19.084;2022-09-09T17:37:24;43.60;;;20.88;;
68108;SDS011;54893;49.864;19.084;2022-09-09T17:42:24;28.23;;;14.30;;
68108;SDS011;54893;49.864;19.084;2022-09-09T17:47:24;22.55;;;11.93;;
68108;SDS011;54893;49.864;19.084;2022-09-09T17:52:25;22.90;;;12.73;;
68108;SDS011;54893;49.864;19.084;2022-09-09T17:57:26;23.10;;;11.43;;
68108;SDS011;54893;49.864;19.084;2022-09-09T18:02:27;18.73;;;10.20;;
68108;SDS011;54893;49.864;19.084;2022-09-09T18:07:28;20.30;;;10.45;;
68108;SDS011;54893;49.864;19.084;2022-09-09T18:12:29;16.23;;;9.57;;
68108;SDS011;54893;49.864;19.084;2022-09-09T18:17:29;18.30;;;10.30;;
68108;SDS011;54893;49.864;19.084;2022-09-09T18:22:31;17.98;;;10.15;;
68108;SDS011;54893;49.864;19.084;2022-09-09T18:27:33;15.65;;;8.68;;
68108;SDS011;54893;49.864;19.084;2022-09-09T18:32:33;15.38;;;7.85;;
68108;SDS011;54893;49.864;19.084;2022-09-09T18:37:33;16.17;;;9.43;;
68108;SDS011;54893;49.864;19.084;2022-09-09T18:42:35;17.85;;;9.40;;
68108;SDS011;54893;49.864;19.084;2022-09-09T18:47:35;26.53;;;10.00;;
68108;SDS011;54893;49.864;19.084;2022-09-09T18:52:36;18.67;;;10.00;;
68108;SDS011;54893;49.864;19.084;2022-09-09T18:57:36;20.90;;;10.18;;
68108;SDS011;54893;49.864;19.084;2022-09-09T19:02:37;17.33;;;9.80;;
68108;SDS011;54893;49.864;19.084;2022-09-09T19:07:38;19.20;;;9.83;;
68108;SDS011;54893;49.864;19.084;2022-09-09T19:12:40;16.55;;;8.85;;
68108;SDS011;54893;49.864;19.084;2022-09-09T19:17:40;19.00;;;9.53;;
68108;SDS011;54893;49.864;19.084;2022-09-09T19:22:41;21.13;;;10.70;;
68108;SDS011;54893;49.864;19.084;2022-09-09T19:27:41;18.50;;;9.50;;
68108;SDS011;54893;49.864;19.084;2022-09-09T19:32:42;23.07;;;13.40;;
68108;SDS011;54893;49.864;19.084;2022-09-09T19:37:42;21.40;;;11.90;;
68108;SDS011;54893;49.864;19.084;2022-09-09T19:42:42;20.63;;;11.00;;
68108;SDS011;54893;49.864;19.084;2022-09-09T19:47:43;19.57;;;9.47;;
68108;SDS011;54893;49.864;19.084;2022-09-09T19:52:43;16.40;;;8.07;;
68108;SDS011;54893;49.864;19.084;2022-09-09T19:57:43;14.63;;;7.60;;
68108;SDS011;54893;49.864;19.084;2022-09-09T20:02:44;13.68;;;7.45;;
68108;SDS011;54893;49.864;19.084;2022-09-09T20:07:44;14.07;;;7.97;;
68108;SDS011;54893;49.864;19.084;2022-09-09T20:12:44;14.83;;;7.00;;
68108;SDS011;54893;49.864;19.084;2022-09-09T20:17:45;11.37;;;6.20;;
68108;SDS011;54893;49.864;19.084;2022-09-09T20:22:45;11.10;;;5.72;;
68108;SDS011;54893;49.864;19.084;2022-09-09T20:27:46;14.50;;;6.43;;
68108;SDS011;54893;49.864;19.084;2022-09-09T20:32:46;19.13;;;7.53;;
68108;SDS011;54893;49.864;19.084;2022-09-09T20:37:46;10.80;;;5.90;;
68108;SDS011;54893;49.864;19.084;2022-09-09T20:42:47;10.52;;;4.82;;
68108;SDS011;54893;49.864;19.084;2022-09-09T20:47:47;9.60;;;5.63;;
68108;SDS011;54893;49.864;19.084;2022-09-09T20:52:47;10.15;;;5.80;;
68108;SDS011;54893;49.864;19.084;2022-09-09T20:57:48;9.27;;;5.43;;
68108;SDS011;54893;49.864;19.084;2022-09-09T21:02:50;9.20;;;5.50;;
68108;SDS011;54893;49.864;19.084;2022-09-09T21:07:51;9.60;;;5.40;;
68108;SDS011;54893;49.864;19.084;2022-09-09T21:12:51;10.80;;;5.50;;
68108;SDS011;54893;49.864;19.084;2022-09-09T21:17:53;10.83;;;6.00;;
68108;SDS011;54893;49.864;19.084;2022-09-09T21:22:53;11.77;;;5.70;;
68108;SDS011;54893;49.864;19.084;2022-09-09T21:27:54;9.43;;;6.00;;
68108;SDS011;54893;49.864;19.084;2022-09-09T21:32:54;9.83;;;5.90;;
68108;SDS011;54893;49.864;19.084;2022-09-09T21:37:54;11.05;;;7.10;;
68108;SDS011;54893;49.864;19.084;2022-09-09T21:42:55;12.45;;;7.30;;
68108;SDS011;54893;49.864;19.084;2022-09-09T21:47:55;14.63;;;7.83;;
68108;SDS011;54893;49.864;19.084;2022-09-09T21:52:56;15.75;;;8.40;;
68108;SDS011;54893;49.864;19.084;2022-09-09T21:57:56;14.75;;;7.22;;
68108;SDS011;54893;49.864;19.084;2022-09-09T22:02:57;15.18;;;8.05;;
68108;SDS011;54893;49.864;19.084;2022-09-09T22:07:58;15.80;;;7.90;;
68108;SDS011;54893;49.864;19.084;2022-09-09T22:12:58;14.40;;;7.70;;
68108;SDS011;54893;49.864;19.084;2022-09-09T22:17:59;10.70;;;6.97;;
68108;SDS011;54893;49.864;19.084;2022-09-09T22:23:02;10.55;;;6.32;;
68108;SDS011;54893;49.864;19.084;2022-09-09T22:28:03;11.50;;;7.67;;
68108;SDS011;54893;49.864;19.084;2022-09-09T22:33:05;14.38;;;7.70;;
68108;SDS011;54893;49.864;19.084;2022-09-09T22:38:05;13.20;;;7.43;;
68108;SDS011;54893;49.864;19.084;2022-09-09T22:43:10;13.93;;;7.63;;
68108;SDS011;54893;49.864;19.084;2022-09-09T22:48:14;15.82;;;8.50;;
68108;SDS011;54893;49.864;19.084;2022-09-09T22:53:15;17.77;;;9.90;;
68108;SDS011;54893;49.864;19.084;2022-09-09T22:58:17;21.58;;;12.90;;
68108;SDS011;54893;49.864;19.084;2022-09-09T23:03:17;26.47;;;14.03;;
68108;SDS011;54893;49.864;19.084;2022-09-09T23:08:21;26.70;;;14.75;;
68108;SDS011;54893;49.864;19.084;2022-09-09T23:13:23;23.88;;;14.20;;
68108;SDS011;54893;49.864;19.084;2022-09-09T23:18:24;27.83;;;14.52;;
68108;SDS011;54893;49.864;19.084;2022-09-09T23:23:26;27.33;;;15.20;;
68108;SDS011;54893;49.864;19.084;2022-09-09T23:28:28;24.55;;;13.68;;
68108;SDS011;54893;49.864;19.084;2022-09-09T23:33:29;23.77;;;13.30;;
68108;SDS011;54893;49.864;19.084;2022-09-09T23:38:30;22.27;;;13.02;;
68108;SDS011;54893;49.864;19.084;2022-09-09T23:43:31;20.87;;;12.23;;
68108;SDS011;54893;49.864;19.084;2022-09-09T23:48:35;18.97;;;11.67;;
68108;SDS011;54893;49.864;19.084;2022-09-09T23:53:38;20.58;;;11.82;;
68108;SDS011;54893;49.864;19.084;2022-09-09T23:58:39;21.42;;;12.23;;
